Time;durP1;ratioP1;P1;durP2;ratioP2;P2;SDS_P1;SDS_P2;PMS_P1;PMS_P2;Temp;Humidity;BMP_temperature;BMP_pressure;BME280_temperature;BME280_humidity;BME280_pressure;Samples;Min_cycle;Max_cycle;Signal;HPM_P1;HPM_P2
2021/08/07 00:01:35;;;;;;;2.77;1.83;;;;;;;;;;5038013;28;20201;-77
2021/08/07 00:04:40;;;;;;;3.40;1.73;;;;;;;;;;5015361;28;20568;-77
2021/08/07 00:07:44;;;;;;;4.50;1.87;;;;;;;;;;5038827;28;20509;-78
2021/08/07 00:10:48;;;;;;;3.27;1.47;;;;;;;;;;5038880;28;20176;-77
2021/08/07 00:13:52;;;;;;;3.07;1.50;;;;;;;;;;5039296;28;20216;-77
2021/08/07 00:16:56;;;;;;;1.93;1.60;;;;;;;;;;5038385;28;20177;-77
2021/08/07 00:20:00;;;;;;;4.80;1.60;;;;;;;;;;5015006;28;20177;-76
2021/08/07 00:23:04;;;;;;;3.10;1.67;;;;;;;;;;5025886;28;20217;-77
2021/08/07 00:26:08;;;;;;;6.73;2.10;;;;;;;;;;5026847;28;20177;-77
2021/08/07 00:29:13;;;;;;;4.97;2.17;;;;;;;;;;5038648;28;20180;-77
2021/08/07 00:32:17;;;;;;;2.23;1.80;;;;;;;;;;5026573;28;20184;-77
2021/08/07 00:35:23;;;;;;;2.73;2.00;;;;;;;;;;5015945;28;20188;-77
2021/08/07 00:38:29;;;;;;;4.20;2.37;;;;;;;;;;5015176;28;20204;-77
2021/08/07 00:41:41;;;;;;;3.23;1.60;;;;;;;;;;5027591;28;20180;-77
2021/08/07 00:44:46;;;;;;;7.13;1.80;;;;;;;;;;5013774;28;20204;-77
2021/08/07 00:47:52;;;;;;;3.40;1.87;;;;;;;;;;5012020;28;20185;-77
2021/08/07 00:50:58;;;;;;;2.53;1.60;;;;;;;;;;5035264;28;20224;-77
2021/08/07 00:54:03;;;;;;;3.13;2.13;;;;;;;;;;5023032;28;20213;-77
2021/08/07 00:57:07;;;;;;;4.93;1.90;;;;;;;;;;5023211;28;20209;-77
2021/08/07 01:00:14;;;;;;;3.23;1.80;;;;;;;;;;5022987;28;20176;-77
2021/08/07 01:03:45;;;;;;;2.40;1.70;;;;;;;;;;5012123;28;20224;-77
2021/08/07 01:07:05;;;;;;;3.57;1.97;;;;;;;;;;5012203;28;20521;-77
2021/08/07 01:10:10;;;;;;;4.03;1.97;;;;;;;;;;5011550;28;20185;-76
2021/08/07 01:13:23;;;;;;;2.53;1.87;;;;;;;;;;5012249;28;20216;-77
2021/08/07 01:16:36;;;;;;;6.63;1.90;;;;;;;;;;5023301;28;20181;-77
2021/08/07 01:19:57;;;;;;;4.67;1.80;;;;;;;;;;5012087;28;20185;-77
2021/08/07 01:23:08;;;;;;;3.93;1.80;;;;;;;;;;5000053;28;20552;-76
2021/08/07 01:26:18;;;;;;;6.47;2.07;;;;;;;;;;5022577;28;20193;-77
2021/08/07 01:29:32;;;;;;;3.00;1.60;;;;;;;;;;5022331;28;20189;-77
2021/08/07 01:32:39;;;;;;;2.97;1.90;;;;;;;;;;5011620;28;20228;-76
2021/08/07 01:35:47;;;;;;;5.23;2.23;;;;;;;;;;5022250;28;20196;-77
2021/08/07 01:38:53;;;;;;;1.93;1.63;;;;;;;;;;5022638;28;20518;-77
2021/08/07 01:41:59;;;;;;;6.87;1.83;;;;;;;;;;5022441;28;20640;-77
2021/08/07 01:45:04;;;;;;;5.23;1.97;;;;;;;;;;5010750;28;20213;-77
2021/08/07 01:48:37;;;;;;;2.97;1.90;;;;;;;;;;5010837;28;20522;-77
2021/08/07 01:51:58;;;;;;;3.90;2.00;;;;;;;;;;5000993;28;20204;-76
2021/08/07 01:55:16;;;;;;;3.33;1.90;;;;;;;;;;5022822;28;20505;-77
2021/08/07 01:58:34;;;;;;;4.17;2.07;;;;;;;;;;5022872;28;20185;-77
2021/08/07 02:01:39;;;;;;;3.70;1.70;;;;;;;;;;5013454;28;20184;-78
2021/08/07 02:04:47;;;;;;;8.53;2.10;;;;;;;;;;5024238;28;20204;-78
2021/08/07 02:07:59;;;;;;;2.20;2.00;;;;;;;;;;5013065;28;20196;-77
2021/08/07 02:11:08;;;;;;;4.70;1.90;;;;;;;;;;5003127;28;20196;-78
2021/08/07 02:14:15;;;;;;;3.77;1.80;;;;;;;;;;5012837;28;20213;-78
2021/08/07 02:17:21;;;;;;;3.40;1.83;;;;;;;;;;5013425;28;20516;-78
2021/08/07 02:20:28;;;;;;;3.77;1.73;;;;;;;;;;5013488;28;20189;-78
2021/08/07 02:23:33;;;;;;;3.40;1.97;;;;;;;;;;5024117;28;20220;-77
2021/08/07 02:26:38;;;;;;;3.13;2.10;;;;;;;;;;5024171;28;20185;-77
2021/08/07 02:29:45;;;;;;;5.93;2.33;;;;;;;;;;5013576;28;20632;-77
2021/08/07 02:32:51;;;;;;;2.47;1.93;;;;;;;;;;5013749;28;20216;-77
2021/08/07 02:35:59;;;;;;;3.67;2.30;;;;;;;;;;5024274;28;20185;-78
2021/08/07 02:39:03;;;;;;;4.20;2.27;;;;;;;;;;5013504;28;20188;-78
2021/08/07 02:42:08;;;;;;;3.07;1.90;;;;;;;;;;5013415;28;20517;-78
2021/08/07 02:45:19;;;;;;;2.73;2.00;;;;;;;;;;5024124;28;20216;-77
2021/08/07 02:48:28;;;;;;;4.33;1.87;;;;;;;;;;5013603;28;20200;-78
2021/08/07 02:51:36;;;;;;;5.70;2.40;;;;;;;;;;5023964;28;20196;-77
2021/08/07 02:54:40;;;;;;;3.53;2.10;;;;;;;;;;5023594;28;20197;-77
2021/08/07 02:57:45;;;;;;;2.33;1.90;;;;;;;;;;5024287;28;20185;-77
2021/08/07 03:00:53;;;;;;;2.73;1.93;;;;;;;;;;5024452;28;20185;-77
2021/08/07 03:03:59;;;;;;;4.93;2.30;;;;;;;;;;5024148;28;20584;-78
2021/08/07 03:07:04;;;;;;;3.83;2.37;;;;;;;;;;5024219;28;20181;-78
2021/08/07 03:10:10;;;;;;;2.40;2.10;;;;;;;;;;5014464;28;20176;-77
2021/08/07 03:13:15;;;;;;;4.37;2.50;;;;;;;;;;5027840;28;20216;-77
2021/08/07 03:16:20;;;;;;;3.33;2.63;;;;;;;;;;5005640;28;20620;-77
2021/08/07 03:19:26;;;;;;;8.57;2.83;;;;;;;;;;5016613;28;20180;-78
2021/08/07 03:22:33;;;;;;;5.90;2.80;;;;;;;;;;5016740;28;20220;-78
2021/08/07 03:25:37;;;;;;;5.57;2.60;;;;;;;;;;5028456;28;20667;-77
2021/08/07 03:28:48;;;;;;;8.17;2.97;;;;;;;;;;5028901;28;20185;-77
2021/08/07 03:31:55;;;;;;;5.97;3.00;;;;;;;;;;5017356;28;20517;-77
2021/08/07 03:35:07;;;;;;;4.20;2.70;;;;;;;;;;5027972;28;20178;-77
2021/08/07 03:38:11;;;;;;;7.03;2.90;;;;;;;;;;5017237;28;20200;-77
2021/08/07 03:41:15;;;;;;;7.63;3.00;;;;;;;;;;5028690;28;20181;-77
2021/08/07 03:44:20;;;;;;;3.90;2.50;;;;;;;;;;5027757;28;20225;-77
2021/08/07 03:47:26;;;;;;;4.27;2.10;;;;;;;;;;5027988;28;20188;-78
2021/08/07 03:50:32;;;;;;;3.93;2.30;;;;;;;;;;5017171;28;20185;-77
2021/08/07 03:53:37;;;;;;;4.87;2.80;;;;;;;;;;5027903;28;20220;-77
2021/08/07 03:56:42;;;;;;;6.27;2.67;;;;;;;;;;5038648;28;20181;-77
2021/08/07 03:59:46;;;;;;;4.63;2.67;;;;;;;;;;5015766;28;20184;-77
2021/08/07 04:02:50;;;;;;;4.17;2.83;;;;;;;;;;5027412;28;20212;-77
2021/08/07 04:05:55;;;;;;;5.23;2.77;;;;;;;;;;5015582;28;20209;-77
2021/08/07 04:08:59;;;;;;;4.77;2.93;;;;;;;;;;5016480;28;20189;-77
2021/08/07 04:12:07;;;;;;;5.20;3.07;;;;;;;;;;5015184;28;20181;-77
2021/08/07 04:15:12;;;;;;;5.47;2.90;;;;;;;;;;5016313;28;20517;-78
2021/08/07 04:18:17;;;;;;;4.87;3.00;;;;;;;;;;5023834;28;20204;-77
2021/08/07 04:21:22;;;;;;;7.03;2.50;;;;;;;;;;5022792;28;20197;-77
2021/08/07 04:24:27;;;;;;;4.30;2.40;;;;;;;;;;5001137;28;20224;-77
2021/08/07 04:27:31;;;;;;;4.80;2.40;;;;;;;;;;5013197;28;20189;-77
2021/08/07 04:30:36;;;;;;;3.57;2.50;;;;;;;;;;5035797;28;20521;-77
2021/08/07 04:33:41;;;;;;;5.07;2.43;;;;;;;;;;5023409;28;20216;-77
2021/08/07 04:36:48;;;;;;;4.77;2.37;;;;;;;;;;5023515;28;20204;-77
2021/08/07 04:39:54;;;;;;;5.27;2.27;;;;;;;;;;5001093;28;20185;-77
2021/08/07 04:42:58;;;;;;;6.17;2.47;;;;;;;;;;5012202;28;20221;-77
2021/08/07 04:46:03;;;;;;;4.67;2.37;;;;;;;;;;5011740;28;20205;-77
2021/08/07 04:49:07;;;;;;;7.43;2.40;;;;;;;;;;5023960;28;20533;-77
2021/08/07 04:52:11;;;;;;;3.93;2.07;;;;;;;;;;5023390;28;20184;-77
2021/08/07 04:55:17;;;;;;;9.00;2.63;;;;;;;;;;5001361;28;20173;-77
2021/08/07 04:58:21;;;;;;;5.03;2.50;;;;;;;;;;5011918;28;20209;-78
2021/08/07 05:01:25;;;;;;;4.77;2.50;;;;;;;;;;5023035;28;20192;-77
2021/08/07 05:04:29;;;;;;;4.07;2.13;;;;;;;;;;5012585;28;20216;-77
2021/08/07 05:07:34;;;;;;;5.80;2.70;;;;;;;;;;5023026;28;20527;-77
2021/08/07 05:10:38;;;;;;;2.97;2.00;;;;;;;;;;5023096;28;20177;-77
2021/08/07 05:13:42;;;;;;;3.47;1.93;;;;;;;;;;5022721;28;20212;-77
2021/08/07 05:16:50;;;;;;;3.50;2.43;;;;;;;;;;5034858;28;20184;-77
2021/08/07 05:19:54;;;;;;;4.60;2.20;;;;;;;;;;5011571;28;20181;-77
2021/08/07 05:22:59;;;;;;;3.67;2.17;;;;;;;;;;5022620;28;20217;-77
2021/08/07 05:26:04;;;;;;;4.00;2.07;;;;;;;;;;5022407;28;20225;-77
2021/08/07 05:29:08;;;;;;;3.43;2.20;;;;;;;;;;5011699;28;20185;-77
2021/08/07 05:32:12;;;;;;;3.87;2.13;;;;;;;;;;5022513;28;20196;-77
2021/08/07 05:35:16;;;;;;;8.53;2.20;;;;;;;;;;5022600;28;20193;-77
2021/08/07 05:38:21;;;;;;;5.57;2.80;;;;;;;;;;5022036;28;20204;-77
2021/08/07 05:41:25;;;;;;;4.97;2.10;;;;;;;;;;5022243;28;20201;-77
2021/08/07 05:44:29;;;;;;;3.93;2.20;;;;;;;;;;5010955;28;20177;-77
2021/08/07 05:47:34;;;;;;;4.10;2.30;;;;;;;;;;5010900;28;20185;-77
2021/08/07 05:50:41;;;;;;;7.47;2.50;;;;;;;;;;5022626;28;20185;-77
2021/08/07 05:53:45;;;;;;;4.57;2.33;;;;;;;;;;5022441;28;20246;-77
2021/08/07 05:56:49;;;;;;;4.73;2.13;;;;;;;;;;5010905;28;20184;-77
2021/08/07 05:59:55;;;;;;;3.47;2.37;;;;;;;;;;4999696;28;20185;-77
2021/08/07 06:02:59;;;;;;;8.53;2.50;;;;;;;;;;5010807;28;20212;-77
2021/08/07 06:06:11;;;;;;;5.13;2.60;;;;;;;;;;5011878;28;20212;-78
2021/08/07 06:09:16;;;;;;;4.60;2.53;;;;;;;;;;5021848;28;20648;-77
2021/08/07 06:12:21;;;;;;;3.97;3.10;;;;;;;;;;5022103;28;20616;-77
2021/08/07 06:15:26;;;;;;;4.30;2.40;;;;;;;;;;5021966;28;20168;-77
2021/08/07 06:18:30;;;;;;;7.20;2.97;;;;;;;;;;5032917;28;20219;-75
2021/08/07 06:21:34;;;;;;;6.63;2.80;;;;;;;;;;5021727;28;20189;-77
2021/08/07 06:24:39;;;;;;;5.80;2.40;;;;;;;;;;5021535;28;20185;-77
2021/08/07 06:27:43;;;;;;;7.37;2.53;;;;;;;;;;5010698;28;20505;-76
2021/08/07 06:30:47;;;;;;;8.87;3.03;;;;;;;;;;5021565;28;20525;-77
2021/08/07 06:33:57;;;;;;;4.80;2.33;;;;;;;;;;5011038;28;20679;-77
2021/08/07 06:37:02;;;;;;;2.37;1.97;;;;;;;;;;5010186;28;20656;-77
2021/08/07 06:40:09;;;;;;;7.70;2.70;;;;;;;;;;5010530;28;20185;-77
2021/08/07 06:43:15;;;;;;;5.00;2.53;;;;;;;;;;5021717;28;20220;-77
2021/08/07 06:46:24;;;;;;;3.07;2.20;;;;;;;;;;5011089;28;20224;-77
2021/08/07 06:49:28;;;;;;;4.10;2.33;;;;;;;;;;5033592;28;20220;-77
2021/08/07 06:52:34;;;;;;;3.60;1.80;;;;;;;;;;5022645;28;20220;-77
2021/08/07 06:55:39;;;;;;;2.50;2.00;;;;;;;;;;5022707;28;20176;-77
2021/08/07 06:58:43;;;;;;;2.67;1.80;;;;;;;;;;5022293;28;20200;-77
2021/08/07 07:01:49;;;;;;;2.97;1.93;;;;;;;;;;5011266;28;20202;-77
2021/08/07 07:04:53;;;;;;;4.97;2.73;;;;;;;;;;5010879;28;20509;-77
2021/08/07 07:08:00;;;;;;;6.90;2.00;;;;;;;;;;5021892;28;20517;-77
2021/08/07 07:11:05;;;;;;;4.30;1.93;;;;;;;;;;5011764;28;20181;-77
2021/08/07 07:14:09;;;;;;;4.87;1.87;;;;;;;;;;5022981;28;20216;-77
2021/08/07 07:17:13;;;;;;;4.03;2.00;;;;;;;;;;5034647;28;20177;-77
2021/08/07 07:20:20;;;;;;;2.40;1.60;;;;;;;;;;5034756;28;20177;-77
2021/08/07 07:23:25;;;;;;;2.87;1.60;;;;;;;;;;5023333;28;20220;-77
2021/08/07 07:26:31;;;;;;;4.70;1.70;;;;;;;;;;5023574;28;20213;-77
2021/08/07 07:29:37;;;;;;;36.07;15.93;;;;;;;;;;5023515;28;20184;-77
2021/08/07 07:32:42;;;;;;;4.60;2.10;;;;;;;;;;5023835;28;20231;-77
2021/08/07 07:35:47;;;;;;;5.80;2.07;;;;;;;;;;5035256;28;20652;-77
2021/08/07 07:38:53;;;;;;;6.93;2.23;;;;;;;;;;5011618;28;20177;-77
2021/08/07 07:41:57;;;;;;;3.07;1.93;;;;;;;;;;5002471;28;20173;-77
2021/08/07 07:45:01;;;;;;;11.57;7.20;;;;;;;;;;5008415;28;20659;-77
2021/08/07 07:48:07;;;;;;;3.50;1.53;;;;;;;;;;5009191;28;20192;-77
2021/08/07 07:51:12;;;;;;;3.23;1.53;;;;;;;;;;5020681;28;20545;-77
2021/08/07 07:54:17;;;;;;;2.87;1.90;;;;;;;;;;5020271;28;20220;-76
2021/08/07 07:57:21;;;;;;;4.80;2.27;;;;;;;;;;5022059;28;20189;-77
2021/08/07 08:00:26;;;;;;;5.47;2.80;;;;;;;;;;5024073;28;20185;-77
2021/08/07 08:03:34;;;;;;;4.70;2.23;;;;;;;;;;5027603;28;20220;-77
2021/08/07 08:06:39;;;;;;;5.40;2.20;;;;;;;;;;5030819;28;20201;-77
2021/08/07 08:09:44;;;;;;;4.50;1.83;;;;;;;;;;5017296;28;20185;-77
2021/08/07 08:12:49;;;;;;;10.13;2.37;;;;;;;;;;5028061;28;20216;-77
2021/08/07 08:16:17;;;;;;;4.67;2.20;;;;;;;;;;5040476;28;20181;-77
2021/08/07 08:19:21;;;;;;;4.30;2.20;;;;;;;;;;5031673;28;20632;-78
2021/08/07 08:22:26;;;;;;;5.50;2.30;;;;;;;;;;5020991;28;20216;-77
2021/08/07 08:25:31;;;;;;;4.60;2.70;;;;;;;;;;5028244;28;20213;-77
2021/08/07 08:28:36;;;;;;;7.17;2.80;;;;;;;;;;5031197;28;20177;-78
2021/08/07 08:31:40;;;;;;;5.53;2.33;;;;;;;;;;5032396;28;20629;-78
2021/08/07 08:34:45;;;;;;;3.80;2.43;;;;;;;;;;5031845;28;20178;-78
2021/08/07 08:37:50;;;;;;;8.87;2.60;;;;;;;;;;5020517;28;20204;-78
2021/08/07 08:40:57;;;;;;;6.57;2.30;;;;;;;;;;5021532;28;20188;-78
2021/08/07 08:44:04;;;;;;;5.43;2.30;;;;;;;;;;5033297;28;20225;-78
2021/08/07 08:47:12;;;;;;;5.00;2.53;;;;;;;;;;5032665;28;20226;-78
2021/08/07 08:50:21;;;;;;;5.20;2.30;;;;;;;;;;5031902;28;20513;-78
2021/08/07 08:53:26;;;;;;;3.70;1.87;;;;;;;;;;5021602;28;20219;-78
2021/08/07 08:56:34;;;;;;;6.57;2.10;;;;;;;;;;5032589;28;20190;-78
2021/08/07 08:59:39;;;;;;;4.17;1.80;;;;;;;;;;5021338;28;20197;-77
2021/08/07 09:02:44;;;;;;;4.53;1.93;;;;;;;;;;5032368;28;20223;-78
2021/08/07 09:05:50;;;;;;;3.60;2.07;;;;;;;;;;5022217;28;20209;-78
2021/08/07 09:09:09;;;;;;;4.23;2.47;;;;;;;;;;5033060;28;20185;-78
2021/08/07 09:12:14;;;;;;;7.07;2.53;;;;;;;;;;5033114;28;20187;-77
2021/08/07 09:15:34;;;;;;;8.37;2.57;;;;;;;;;;5021640;28;20197;-78
2021/08/07 09:18:43;;;;;;;6.23;2.40;;;;;;;;;;5011288;28;20191;-78
2021/08/07 09:22:20;;;;;;;5.43;2.43;;;;;;;;;;5021928;28;20182;-78
2021/08/07 09:25:33;;;;;;;6.53;2.93;;;;;;;;;;5038271;23;20221;-73
2021/08/07 09:28:53;;;;;;;4.27;2.73;;;;;;;;;;5031768;28;20193;-73
2021/08/07 09:31:59;;;;;;;6.03;2.90;;;;;;;;;;5056339;28;20195;-74
2021/08/07 09:35:08;;;;;;;3.60;2.37;;;;;;;;;;5042015;28;20643;-74
2021/08/07 09:38:24;;;;;;;3.70;2.30;;;;;;;;;;5041760;28;20213;-74
2021/08/07 09:41:59;;;;;;;3.53;2.20;;;;;;;;;;5026940;28;20193;-74
2021/08/07 09:45:08;;;;;;;4.27;1.90;;;;;;;;;;5023400;28;20192;-74
2021/08/07 09:48:16;;;;;;;3.17;2.00;;;;;;;;;;5028091;28;20184;-74
2021/08/07 09:51:35;;;;;;;3.45;1.83;;;;;;;;;;5024572;28;20197;-74
2021/08/07 09:54:45;;;;;;;3.42;1.65;;;;;;;;;;5022357;28;20186;-74
2021/08/07 09:58:12;;;;;;;6.53;2.10;;;;;;;;;;5022479;28;20197;-74
2021/08/07 10:01:28;;;;;;;6.53;1.65;;;;;;;;;;5022993;28;20191;-74
2021/08/07 10:04:39;;;;;;;2.92;1.75;;;;;;;;;;5022117;28;20184;-74
2021/08/07 10:08:02;;;;;;;4.18;1.83;;;;;;;;;;5026197;28;20676;-74
2021/08/07 10:11:15;;;;;;;3.28;1.67;;;;;;;;;;5030102;28;20203;-74
2021/08/07 10:14:22;;;;;;;4.22;2.05;;;;;;;;;;5032460;28;20230;-74
2021/08/07 10:17:26;;;;;;;4.82;1.83;;;;;;;;;;5021870;28;20175;-73
2021/08/07 10:20:34;;;;;;;2.72;1.50;;;;;;;;;;5020904;28;20193;-74
2021/08/07 10:23:39;;;;;;;6.55;1.95;;;;;;;;;;5021503;28;20222;-74
2021/08/07 10:26:46;;;;;;;3.65;1.50;;;;;;;;;;5009892;28;20220;-73
2021/08/07 10:29:51;;;;;;;3.97;1.40;;;;;;;;;;5033574;28;20233;-73
2021/08/07 10:32:57;;;;;;;3.00;1.60;;;;;;;;;;5002379;28;20218;-73
2021/08/07 10:36:02;;;;;;;4.60;1.95;;;;;;;;;;5021897;28;20211;-73
2021/08/07 10:39:07;;;;;;;3.33;1.80;;;;;;;;;;5010193;28;20174;-74
2021/08/07 10:42:15;;;;;;;3.83;1.70;;;;;;;;;;5021570;28;20645;-74
2021/08/07 10:45:22;;;;;;;5.72;1.70;;;;;;;;;;5029281;28;20191;-74
2021/08/07 10:48:36;;;;;;;2.03;1.65;;;;;;;;;;5021807;28;20512;-74
2021/08/07 10:51:43;;;;;;;2.53;1.73;;;;;;;;;;5017008;28;20199;-74
2021/08/07 10:54:51;;;;;;;3.15;1.50;;;;;;;;;;5046393;28;20190;-74
2021/08/07 10:57:55;;;;;;;2.92;1.40;;;;;;;;;;5052929;28;20194;-74
2021/08/07 11:01:22;;;;;;;3.03;1.60;;;;;;;;;;5053168;28;20179;-74
2021/08/07 11:04:32;;;;;;;3.03;1.33;;;;;;;;;;5042250;28;20218;-74
2021/08/07 11:07:36;;;;;;;2.25;1.30;;;;;;;;;;5033167;28;20211;-74
2021/08/07 11:10:40;;;;;;;2.78;1.40;;;;;;;;;;5043893;28;20193;-74
2021/08/07 11:13:44;;;;;;;3.60;1.50;;;;;;;;;;5040628;28;20211;-75
2021/08/07 11:17:04;;;;;;;1.92;1.30;;;;;;;;;;5033431;28;20179;-75
2021/08/07 11:20:14;;;;;;;4.72;1.27;;;;;;;;;;5037357;28;20194;-75
2021/08/07 11:23:20;;;;;;;1.95;1.30;;;;;;;;;;5041113;28;20221;-74
2021/08/07 11:26:49;;;;;;;2.28;1.33;;;;;;;;;;5053006;28;20226;-74
2021/08/07 11:30:16;;;;;;;2.28;1.50;;;;;;;;;;5053345;28;20182;-74
2021/08/07 11:33:20;;;;;;;2.47;1.50;;;;;;;;;;5056613;28;20221;-75
2021/08/07 11:36:25;;;;;;;2.78;1.55;;;;;;;;;;5044781;28;20178;-75
2021/08/07 11:40:04;;;;;;;4.40;1.30;;;;;;;;;;5044439;28;20176;-75
2021/08/07 11:43:37;;;;;;;8.82;2.00;;;;;;;;;;5056837;28;20219;-75
2021/08/07 11:46:42;;;;;;;3.30;1.30;;;;;;;;;;5056469;28;20674;-75
2021/08/07 11:49:47;;;;;;;2.50;1.55;;;;;;;;;;5044810;28;20186;-75
2021/08/07 11:52:52;;;;;;;1.92;1.50;;;;;;;;;;5056497;28;20221;-75
2021/08/07 11:56:00;;;;;;;5.10;2.00;;;;;;;;;;5044385;28;20190;-75
2021/08/07 11:59:04;;;;;;;14.60;4.82;;;;;;;;;;5054548;28;20188;-75
2021/08/07 12:02:15;;;;;;;3.72;1.80;;;;;;;;;;5054783;28;20245;-76
2021/08/07 12:05:19;;;;;;;7.32;2.53;;;;;;;;;;5016511;28;20183;-75
2021/08/07 12:08:25;;;;;;;8.45;2.13;;;;;;;;;;5016123;28;20208;-74
2021/08/07 12:11:29;;;;;;;8.30;3.70;;;;;;;;;;5030184;28;20195;-75
2021/08/07 12:14:34;;;;;;;6.97;1.80;;;;;;;;;;5037112;28;20189;-75
2021/08/07 12:17:45;;;;;;;5.68;1.70;;;;;;;;;;5036544;28;20172;-75
2021/08/07 12:20:50;;;;;;;4.22;1.48;;;;;;;;;;5012500;28;20540;-75
2021/08/07 12:24:01;;;;;;;3.97;1.67;;;;;;;;;;5035857;28;20550;-75
2021/08/07 12:27:05;;;;;;;4.15;1.80;;;;;;;;;;5023785;28;20248;-75
2021/08/07 12:30:13;;;;;;;3.60;1.60;;;;;;;;;;5047818;28;20200;-75
2021/08/07 12:33:19;;;;;;;2.83;1.65;;;;;;;;;;5035826;28;20218;-75
2021/08/07 12:36:23;;;;;;;3.38;1.55;;;;;;;;;;5036102;28;20179;-75
2021/08/07 12:39:36;;;;;;;4.05;1.77;;;;;;;;;;5035701;28;20204;-75
2021/08/07 12:42:40;;;;;;;3.10;1.60;;;;;;;;;;5035352;28;20553;-75
2021/08/07 12:45:56;;;;;;;9.70;2.22;;;;;;;;;;5035906;28;20204;-76
2021/08/07 12:49:01;;;;;;;2.42;1.60;;;;;;;;;;5053915;28;20189;-75
2021/08/07 12:52:09;;;;;;;3.55;1.65;;;;;;;;;;5055590;28;20178;-75
2021/08/07 12:55:13;;;;;;;2.47;1.50;;;;;;;;;;5043320;28;20190;-75
2021/08/07 12:58:25;;;;;;;3.40;1.80;;;;;;;;;;5040214;28;20203;-75
2021/08/07 13:01:32;;;;;;;4.97;1.95;;;;;;;;;;5031864;28;20530;-75
2021/08/07 13:04:45;;;;;;;4.72;1.77;;;;;;;;;;5039004;28;20646;-75
2021/08/07 13:07:49;;;;;;;4.63;1.70;;;;;;;;;;5017074;28;20207;-75
2021/08/07 13:11:16;;;;;;;2.10;1.40;;;;;;;;;;5035033;28;20187;-75
2021/08/07 13:14:20;;;;;;;4.95;1.77;;;;;;;;;;5024124;28;20553;-75
2021/08/07 13:17:38;;;;;;;2.70;1.40;;;;;;;;;;5015712;28;20178;-75
2021/08/07 13:20:45;;;;;;;1.88;1.65;;;;;;;;;;5003340;28;20182;-75
2021/08/07 13:23:50;;;;;;;4.72;2.10;;;;;;;;;;5024831;28;20224;-75
2021/08/07 13:26:54;;;;;;;7.53;1.95;;;;;;;;;;5035684;28;20229;-76
2021/08/07 13:30:00;;;;;;;4.53;1.83;;;;;;;;;;5034701;28;20196;-75
2021/08/07 13:33:04;;;;;;;6.50;1.65;;;;;;;;;;5022735;28;20216;-75
2021/08/07 13:36:09;;;;;;;3.22;1.60;;;;;;;;;;5015009;28;20684;-76
2021/08/07 13:39:14;;;;;;;4.20;1.60;;;;;;;;;;5015009;28;20180;-75
2021/08/07 13:42:20;;;;;;;7.50;1.75;;;;;;;;;;5030337;28;20658;-76
2021/08/07 13:45:24;;;;;;;2.17;1.60;;;;;;;;;;5051574;28;20194;-75
2021/08/07 13:48:28;;;;;;;3.92;1.67;;;;;;;;;;5052334;28;20203;-75
2021/08/07 13:51:33;;;;;;;3.85;1.85;;;;;;;;;;5054738;28;20548;-75
2021/08/07 13:54:38;;;;;;;3.55;1.75;;;;;;;;;;5043101;28;20197;-75
2021/08/07 13:57:44;;;;;;;4.72;1.83;;;;;;;;;;5034333;28;20184;-75
2021/08/07 14:00:48;;;;;;;3.60;1.70;;;;;;;;;;5014361;28;20208;-75
2021/08/07 14:03:52;;;;;;;4.97;1.88;;;;;;;;;;5030236;28;20218;-75
2021/08/07 14:06:56;;;;;;;2.28;1.40;;;;;;;;;;5053743;28;20199;-75
2021/08/07 14:10:00;;;;;;;4.30;1.73;;;;;;;;;;5054106;28;20192;-75
2021/08/07 14:13:04;;;;;;;2.67;1.83;;;;;;;;;;5053407;28;20694;-75
2021/08/07 14:16:10;;;;;;;3.17;1.60;;;;;;;;;;5014063;28;20209;-75
2021/08/07 14:19:13;;;;;;;2.97;1.83;;;;;;;;;;5022111;28;20201;-75
2021/08/07 14:22:17;;;;;;;4.63;1.70;;;;;;;;;;5034330;28;20198;-75
2021/08/07 14:25:22;;;;;;;4.28;1.80;;;;;;;;;;5010758;28;20562;-74
2021/08/07 14:28:26;;;;;;;6.65;1.95;;;;;;;;;;5015356;28;20219;-75
2021/08/07 14:31:30;;;;;;;3.28;1.48;;;;;;;;;;5038159;28;20206;-75
2021/08/07 14:34:34;;;;;;;3.72;1.90;;;;;;;;;;5014402;28;20179;-75
2021/08/07 14:37:38;;;;;;;5.25;2.00;;;;;;;;;;5023103;28;20185;-75
2021/08/07 14:40:43;;;;;;;17.98;2.72;;;;;;;;;;5046539;28;20185;-75
2021/08/07 14:43:47;;;;;;;2.47;1.95;;;;;;;;;;5033543;28;20726;-75
2021/08/07 14:46:52;;;;;;;10.13;2.50;;;;;;;;;;5033962;28;20195;-75
2021/08/07 14:49:56;;;;;;;7.10;1.87;;;;;;;;;;5033311;28;20682;-75
2021/08/07 14:53:00;;;;;;;4.57;2.00;;;;;;;;;;5038611;28;20570;-75
2021/08/07 14:56:05;;;;;;;2.10;1.63;;;;;;;;;;5000600;28;20196;-75
2021/08/07 14:59:10;;;;;;;3.03;1.97;;;;;;;;;;5045564;28;20190;-76
2021/08/07 15:02:14;;;;;;;5.90;1.90;;;;;;;;;;5034262;28;20187;-74
2021/08/07 15:05:17;;;;;;;5.93;1.93;;;;;;;;;;5033431;28;20642;-75
2021/08/07 15:08:22;;;;;;;3.23;1.80;;;;;;;;;;5033310;28;20209;-74
2021/08/07 15:11:26;;;;;;;2.83;1.90;;;;;;;;;;5033553;28;20213;-75
2021/08/07 15:14:30;;;;;;;4.53;1.93;;;;;;;;;;5029200;28;20574;-75
2021/08/07 15:17:34;;;;;;;4.07;2.00;;;;;;;;;;5032867;28;20181;-75
2021/08/07 15:20:39;;;;;;;5.43;1.83;;;;;;;;;;5050602;28;20650;-76
2021/08/07 15:23:43;;;;;;;2.83;1.63;;;;;;;;;;5053102;28;20223;-75
2021/08/07 15:26:48;;;;;;;3.90;1.60;;;;;;;;;;5037814;28;20204;-75
2021/08/07 15:29:52;;;;;;;1.60;1.40;;;;;;;;;;5013002;28;20185;-75
2021/08/07 15:32:56;;;;;;;5.57;1.30;;;;;;;;;;5048833;28;20236;-74
2021/08/07 15:36:00;;;;;;;2.53;1.53;;;;;;;;;;5029126;28;20189;-75
2021/08/07 15:39:04;;;;;;;3.63;1.27;;;;;;;;;;5020523;28;20196;-76
2021/08/07 15:42:08;;;;;;;1.83;1.40;;;;;;;;;;5019619;28;20196;-75
2021/08/07 15:45:12;;;;;;;3.17;1.77;;;;;;;;;;5045700;28;20196;-75
2021/08/07 15:48:17;;;;;;;1.63;1.30;;;;;;;;;;5014212;28;20205;-76
2021/08/07 15:51:22;;;;;;;1.80;1.50;;;;;;;;;;5052722;28;20188;-75
2021/08/07 15:54:26;;;;;;;5.20;1.80;;;;;;;;;;5038896;28;20643;-77
2021/08/07 15:57:30;;;;;;;2.17;1.30;;;;;;;;;;5047101;28;20192;-75
2021/08/07 16:00:36;;;;;;;2.10;1.40;;;;;;;;;;5050104;28;20259;-75
2021/08/07 16:03:41;;;;;;;2.53;1.60;;;;;;;;;;5032642;28;20703;-75
2021/08/07 16:06:46;;;;;;;2.30;1.63;;;;;;;;;;5032291;28;20196;-75
2021/08/07 16:09:50;;;;;;;2.80;1.50;;;;;;;;;;5020425;28;20181;-75
2021/08/07 16:12:54;;;;;;;2.43;1.60;;;;;;;;;;5051619;28;20261;-76
2021/08/07 16:15:59;;;;;;;2.17;1.60;;;;;;;;;;5033118;28;20189;-75
2021/08/07 16:19:03;;;;;;;4.37;2.80;;;;;;;;;;5059088;22;20231;-76
2021/08/07 16:22:07;;;;;;;3.10;2.00;;;;;;;;;;5074208;28;20191;-76
2021/08/07 16:25:11;;;;;;;4.20;1.70;;;;;;;;;;5063977;28;20180;-76
2021/08/07 16:28:15;;;;;;;3.03;1.97;;;;;;;;;;5060715;28;20204;-76
2021/08/07 16:31:21;;;;;;;1.97;1.70;;;;;;;;;;5056089;28;20561;-75
2021/08/07 16:34:25;;;;;;;2.97;2.40;;;;;;;;;;5055655;28;20219;-76
2021/08/07 16:37:29;;;;;;;8.27;2.60;;;;;;;;;;5055899;28;20180;-76
2021/08/07 16:40:33;;;;;;;4.80;2.33;;;;;;;;;;5056135;28;20176;-76
2021/08/07 16:43:38;;;;;;;6.83;2.50;;;;;;;;;;5043167;28;20223;-76
2021/08/07 16:46:42;;;;;;;4.07;2.30;;;;;;;;;;5043746;28;20508;-76
2021/08/07 16:49:47;;;;;;;4.97;2.43;;;;;;;;;;5055425;28;20659;-76
2021/08/07 16:52:51;;;;;;;3.63;2.60;;;;;;;;;;5043178;28;20697;-76
2021/08/07 16:55:55;;;;;;;4.63;2.40;;;;;;;;;;5055614;28;20172;-76
2021/08/07 16:58:59;;;;;;;6.43;2.30;;;;;;;;;;5043554;28;20172;-76
2021/08/07 17:02:05;;;;;;;5.27;2.10;;;;;;;;;;5043459;28;20500;-76
2021/08/07 17:05:09;;;;;;;4.30;2.03;;;;;;;;;;5055683;28;20180;-76
2021/08/07 17:08:13;;;;;;;2.43;2.23;;;;;;;;;;5031787;28;20204;-76
2021/08/07 17:11:17;;;;;;;3.23;2.07;;;;;;;;;;5055328;28;20192;-75
2021/08/07 17:14:21;;;;;;;3.63;2.50;;;;;;;;;;5054867;28;20551;-76
2021/08/07 17:17:28;;;;;;;3.77;1.83;;;;;;;;;;5042877;28;20666;-76
2021/08/07 17:20:33;;;;;;;3.17;2.07;;;;;;;;;;5054704;28;20207;-76
2021/08/07 17:23:37;;;;;;;2.97;1.73;;;;;;;;;;5054960;28;20219;-75
2021/08/07 17:26:41;;;;;;;3.37;2.07;;;;;;;;;;5054777;28;20180;-76
2021/08/07 17:29:45;;;;;;;3.73;2.00;;;;;;;;;;5042070;28;20543;-75
2021/08/07 17:32:49;;;;;;;2.77;1.97;;;;;;;;;;5042380;28;20219;-75
2021/08/07 17:35:53;;;;;;;3.20;2.00;;;;;;;;;;5054569;28;20196;-75
2021/08/07 17:38:57;;;;;;;2.60;1.90;;;;;;;;;;5042232;28;20180;-75
2021/08/07 17:42:02;;;;;;;4.97;1.80;;;;;;;;;;5042340;28;20184;-75
2021/08/07 17:45:08;;;;;;;3.93;1.87;;;;;;;;;;5042130;28;20627;-75
2021/08/07 17:48:12;;;;;;;3.43;1.83;;;;;;;;;;5054252;28;20204;-76
2021/08/07 17:51:17;;;;;;;2.83;1.83;;;;;;;;;;5031183;28;20200;-76
2021/08/07 17:54:21;;;;;;;3.67;2.10;;;;;;;;;;5054210;28;20215;-76
2021/08/07 17:57:25;;;;;;;3.37;1.70;;;;;;;;;;5054776;28;20184;-75
2021/08/07 18:00:31;;;;;;;4.67;2.13;;;;;;;;;;5042146;28;20184;-76
2021/08/07 18:03:35;;;;;;;4.57;1.73;;;;;;;;;;5054879;28;20220;-76
2021/08/07 18:06:39;;;;;;;3.87;1.80;;;;;;;;;;5054866;28;20176;-76
2021/08/07 18:09:43;;;;;;;8.63;1.90;;;;;;;;;;5053679;28;20216;-76
2021/08/07 18:12:47;;;;;;;2.77;1.60;;;;;;;;;;5054195;28;20223;-76
2021/08/07 18:15:51;;;;;;;2.07;1.63;;;;;;;;;;5053931;28;20188;-76
2021/08/07 18:18:56;;;;;;;3.07;2.00;;;;;;;;;;5053894;28;20208;-76
2021/08/07 18:22:00;;;;;;;4.50;1.97;;;;;;;;;;5041922;28;20504;-76
2021/08/07 18:25:05;;;;;;;4.90;1.70;;;;;;;;;;5054030;28;20184;-75
2021/08/07 18:28:09;;;;;;;2.60;1.77;;;;;;;;;;5053838;28;20176;-75
2021/08/07 18:31:14;;;;;;;3.13;1.90;;;;;;;;;;5030294;28;20184;-76
2021/08/07 18:34:19;;;;;;;3.50;1.80;;;;;;;;;;5053692;28;20219;-75
2021/08/07 18:37:24;;;;;;;2.50;1.93;;;;;;;;;;5053759;28;20196;-75
2021/08/07 18:40:28;;;;;;;5.40;1.80;;;;;;;;;;5040657;28;20180;-75